createdAt,value
2022-10-02T00:00:01.168Z,100.00
2022-10-02T00:02:41.046Z,100.00
2022-10-02T00:05:17.956Z,100.00
2022-10-02T00:07:49.619Z,100.00
2022-10-02T00:10:31.358Z,100.00
2022-10-02T00:13:04.186Z,100.00
2022-10-02T00:15:35.951Z,100.00
2022-10-02T00:18:12.526Z,100.00
2022-10-02T00:20:55.817Z,100.00
2022-10-02T00:23:44.837Z,100.00
2022-10-02T00:26:32.515Z,100.00
2022-10-02T00:29:08.881Z,100.00
2022-10-02T00:32:03.183Z,100.00
2022-10-02T00:34:43.902Z,100.00
2022-10-02T00:37:40.209Z,100.00
2022-10-02T00:40:26.687Z,100.00
2022-10-02T00:43:15.882Z,100.00
2022-10-02T00:45:50.347Z,100.00
2022-10-02T00:48:42.754Z,100.00
2022-10-02T00:51:35.794Z,100.00
2022-10-02T00:54:27.123Z,100.00
2022-10-02T00:57:11.344Z,100.00
2022-10-02T00:59:58.126Z,100.00
2022-10-02T01:02:53.576Z,100.00
2022-10-02T01:05:22.383Z,100.00
2022-10-02T01:07:54.543Z,100.00
2022-10-02T01:10:26.512Z,100.00
2022-10-02T01:12:57.085Z,100.00
2022-10-02T01:15:38.846Z,100.00
2022-10-02T01:18:08.911Z,100.00
2022-10-02T01:20:38.847Z,100.00
2022-10-02T01:23:18.901Z,100.00
2022-10-02T01:25:47.394Z,100.00
2022-10-02T01:28:16.111Z,100.00
2022-10-02T01:30:49.518Z,100.00
2022-10-02T01:33:18.390Z,100.00
2022-10-02T01:35:47.715Z,100.00
2022-10-02T01:38:20.727Z,100.00
2022-10-02T01:40:49.122Z,100.00
2022-10-02T01:43:22.265Z,100.00
2022-10-02T01:46:27.519Z,100.00
2022-10-02T01:49:25.747Z,100.00
2022-10-02T01:52:25.062Z,100.00
2022-10-02T01:55:23.082Z,100.00
2022-10-02T01:57:51.505Z,100.00
2022-10-02T02:00:23.961Z,100.00
2022-10-02T02:03:23.400Z,100.00
2022-10-02T02:05:57.559Z,100.00
2022-10-02T02:08:31.890Z,100.00
2022-10-02T02:11:03.404Z,100.00
2022-10-02T02:13:44.048Z,100.00
2022-10-02T02:16:23.297Z,100.00
2022-10-02T02:19:10.193Z,100.00
2022-10-02T02:21:46.922Z,100.00
2022-10-02T02:24:33.685Z,100.00
2022-10-02T02:27:05.510Z,100.00
2022-10-02T02:29:38.672Z,100.00
2022-10-02T02:32:11.094Z,100.00
2022-10-02T02:34:52.582Z,100.00
2022-10-02T02:37:25.132Z,99.46
2022-10-02T02:39:59.964Z,98.14
2022-10-02T02:42:32.567Z,98.09
2022-10-02T02:45:07.166Z,99.40
2022-10-02T02:47:47.135Z,100.00
2022-10-02T02:50:31.255Z,100.00
2022-10-02T02:53:05.290Z,99.43
2022-10-02T02:55:45.040Z,100.00
2022-10-02T02:58:28.626Z,100.00
2022-10-02T03:00:57.354Z,100.00
2022-10-02T03:03:25.863Z,100.00
2022-10-02T03:06:17.239Z,100.00
2022-10-02T03:08:47.019Z,100.00
2022-10-02T03:11:33.380Z,99.19
2022-10-02T03:14:34.092Z,97.67
2022-10-02T03:17:55.920Z,98.71
2022-10-02T03:20:45.362Z,97.79
2022-10-02T03:23:37.705Z,96.45
2022-10-02T03:26:28.075Z,96.14
2022-10-02T03:29:01.308Z,94.37
2022-10-02T03:31:34.094Z,95.37
2022-10-02T03:34:04.545Z,94.59
2022-10-02T03:36:34.668Z,95.21
2022-10-02T03:39:24.212Z,94.76
2022-10-02T03:41:53.073Z,95.04
2022-10-02T03:44:21.739Z,94.03
2022-10-02T03:46:50.418Z,94.63
2022-10-02T03:49:19.056Z,94.52
2022-10-02T03:51:47.727Z,94.45
2022-10-02T03:54:21.879Z,93.80
2022-10-02T03:57:04.110Z,92.06
2022-10-02T03:59:58.817Z,92.57
2022-10-02T04:02:45.979Z,92.66
2022-10-02T04:05:23.281Z,93.14
2022-10-02T04:07:56.182Z,93.28
2022-10-02T04:10:44.069Z,93.36
2022-10-02T04:13:28.511Z,94.36
2022-10-02T04:16:04.857Z,93.97
2022-10-02T04:18:38.732Z,95.12
2022-10-02T04:21:38.227Z,95.39
2022-10-02T04:24:20.130Z,99.90
2022-10-02T04:26:55.848Z,95.65
2022-10-02T04:29:29.709Z,95.17
2022-10-02T04:32:19.355Z,95.05
2022-10-02T04:34:47.903Z,93.90
2022-10-02T04:37:28.115Z,97.43
2022-10-02T04:40:02.257Z,93.30
2022-10-02T04:42:39.105Z,94.70
2022-10-02T04:45:32.062Z,94.07
2022-10-02T04:48:31.795Z,92.56
2022-10-02T04:51:21.098Z,95.90
2022-10-02T04:54:21.285Z,90.27
2022-10-02T04:57:08.101Z,92.02
2022-10-02T05:00:11.528Z,91.79
2022-10-02T05:03:04.118Z,94.89
2022-10-02T05:06:02.659Z,94.44
2022-10-02T05:08:46.425Z,96.35
2022-10-02T05:11:14.744Z,96.97
2022-10-02T05:14:14.555Z,90.49
2022-10-02T05:17:10.143Z,94.67
2022-10-02T05:19:48.943Z,92.92
2022-10-02T05:22:23.265Z,93.30
2022-10-02T05:25:16.341Z,90.09
2022-10-02T05:27:44.630Z,88.25
2022-10-02T05:30:15.914Z,90.27
2022-10-02T05:33:04.656Z,90.74
2022-10-02T05:35:48.262Z,94.17
2022-10-02T05:38:50.203Z,93.86
2022-10-02T05:41:32.416Z,94.04
2022-10-02T05:44:17.764Z,93.25
2022-10-02T05:46:54.245Z,95.29
2022-10-02T05:49:32.010Z,92.96
2022-10-02T05:52:35.667Z,93.02
2022-10-02T05:55:34.635Z,91.91
2022-10-02T05:58:37.971Z,91.98
2022-10-02T06:01:36.252Z,93.21
2022-10-02T06:04:29.393Z,91.44
2022-10-02T06:07:07.747Z,91.37
2022-10-02T06:10:05.278Z,94.82
2022-10-02T06:12:56.821Z,92.38
2022-10-02T06:15:35.969Z,92.35
2022-10-02T06:18:12.820Z,93.16
2022-10-02T06:20:56.592Z,93.94
2022-10-02T06:23:52.016Z,94.24
2022-10-02T06:26:39.085Z,95.05
2022-10-02T06:29:19.887Z,96.44
2022-10-02T06:32:06.633Z,98.64
2022-10-02T06:34:35.057Z,98.70
2022-10-02T06:37:32.997Z,99.56
2022-10-02T06:40:04.844Z,99.74
2022-10-02T06:42:56.940Z,99.97
2022-10-02T06:45:40.121Z,100.00
2022-10-02T06:48:39.494Z,100.00
2022-10-02T06:51:25.939Z,100.00
2022-10-02T06:54:20.073Z,100.00
2022-10-02T06:57:06.375Z,100.00
2022-10-02T06:59:43.464Z,100.00
2022-10-02T07:02:34.927Z,100.00
2022-10-02T07:05:40.353Z,100.00
2022-10-02T07:08:40.110Z,100.00
2022-10-02T07:11:33.772Z,100.00
2022-10-02T07:14:14.406Z,100.00
2022-10-02T07:17:07.521Z,100.00
2022-10-02T07:20:19.731Z,100.00
2022-10-02T07:23:02.720Z,100.00
2022-10-02T07:26:04.866Z,100.00
2022-10-02T07:28:57.378Z,100.00
2022-10-02T07:31:34.857Z,100.00
2022-10-02T07:34:07.404Z,100.00
2022-10-02T07:37:16.930Z,100.00
2022-10-02T07:39:55.210Z,100.00
2022-10-02T07:42:45.432Z,100.00
2022-10-02T07:45:43.937Z,100.00
2022-10-02T07:48:41.527Z,100.00
2022-10-02T07:51:36.300Z,100.00
2022-10-02T07:54:35.390Z,100.00
2022-10-02T07:57:27.094Z,100.00
2022-10-02T08:00:14.056Z,100.00
2022-10-02T08:03:00.626Z,100.00
2022-10-02T08:05:34.601Z,100.00
2022-10-02T08:08:24.654Z,100.00
2022-10-02T08:11:25.191Z,100.00
2022-10-02T08:13:59.363Z,100.00
2022-10-02T08:16:36.290Z,100.00
2022-10-02T08:19:14.392Z,100.00
2022-10-02T08:21:49.040Z,100.00
2022-10-02T08:24:32.059Z,100.00
2022-10-02T08:27:23.948Z,100.00
2022-10-02T08:30:07.472Z,100.00
2022-10-02T08:32:38.030Z,100.00
2022-10-02T08:35:18.498Z,100.00
2022-10-02T08:38:14.040Z,100.00
2022-10-02T08:40:47.900Z,100.00
2022-10-02T08:44:09.695Z,100.00
2022-10-02T08:46:57.229Z,100.00
2022-10-02T08:49:50.002Z,100.00
2022-10-02T08:53:00.121Z,100.00
2022-10-02T08:56:00.772Z,100.00
2022-10-02T08:58:47.097Z,100.00
2022-10-02T09:01:40.350Z,100.00
2022-10-02T09:04:39.244Z,100.00
2022-10-02T09:07:31.760Z,100.00
2022-10-02T09:10:46.659Z,100.00
2022-10-02T09:13:46.986Z,100.00
2022-10-02T09:16:55.040Z,100.00
2022-10-02T09:19:42.254Z,100.00
2022-10-02T09:22:49.518Z,100.00
2022-10-02T09:25:38.916Z,100.00
2022-10-02T09:28:28.938Z,100.00
2022-10-02T09:31:21.444Z,100.00
2022-10-02T09:34:11.308Z,100.00
2022-10-02T09:37:22.131Z,100.00
2022-10-02T09:39:59.747Z,100.00
2022-10-02T09:42:46.211Z,100.00
2022-10-02T09:45:37.329Z,100.00
2022-10-02T09:48:36.653Z,100.00
2022-10-02T09:51:23.710Z,100.00
2022-10-02T09:54:10.783Z,100.00
2022-10-02T09:57:18.806Z,100.00
2022-10-02T10:00:06.263Z,100.00
2022-10-02T10:02:43.683Z,100.00
2022-10-02T10:05:33.885Z,100.00
2022-10-02T10:08:14.753Z,100.00
2022-10-02T10:10:51.093Z,100.00
2022-10-02T10:13:51.559Z,100.00
2022-10-02T10:16:52.087Z,100.00
2022-10-02T10:20:07.589Z,100.00
2022-10-02T10:23:04.527Z,100.00
2022-10-02T10:25:56.868Z,100.00
2022-10-02T10:29:00.534Z,100.00
2022-10-02T10:32:05.497Z,100.00
2022-10-02T10:35:21.690Z,100.00
2022-10-02T10:38:20.625Z,100.00
2022-10-02T10:41:26.060Z,100.00
2022-10-02T10:44:09.448Z,100.00
2022-10-02T10:47:01.270Z,100.00
2022-10-02T10:50:06.286Z,100.00
2022-10-02T10:52:58.874Z,100.00
2022-10-02T10:55:49.080Z,100.00
2022-10-02T10:58:33.548Z,100.00
2022-10-02T11:01:15.257Z,100.00
2022-10-02T11:04:07.927Z,100.00
2022-10-02T11:06:57.627Z,100.00
2022-10-02T11:09:44.021Z,100.00
2022-10-02T11:12:54.605Z,100.00
2022-10-02T11:15:40.647Z,100.00
2022-10-02T11:18:18.129Z,100.00
2022-10-02T11:20:52.111Z,100.00
2022-10-02T11:23:38.573Z,100.00
2022-10-02T11:26:44.912Z,100.00
2022-10-02T11:29:39.223Z,100.00
2022-10-02T11:32:29.014Z,100.00
2022-10-02T11:35:16.270Z,100.00
2022-10-02T11:38:03.131Z,100.00
2022-10-02T11:40:50.711Z,100.00
2022-10-02T11:43:41.751Z,100.00
2022-10-02T11:46:36.303Z,100.00
2022-10-02T11:49:39.718Z,100.00
2022-10-02T11:52:20.145Z,100.00
2022-10-02T11:55:09.058Z,100.00
2022-10-02T11:57:48.947Z,100.00
2022-10-02T12:00:36.950Z,100.00
2022-10-02T12:03:19.815Z,100.00
2022-10-02T12:05:59.147Z,100.00
2022-10-02T12:08:51.734Z,100.00
2022-10-02T12:11:58.713Z,100.00
2022-10-02T12:14:29.702Z,100.00
2022-10-02T12:17:19.246Z,100.00
2022-10-02T12:20:48.720Z,100.00
2022-10-02T12:23:53.144Z,100.00
2022-10-02T12:26:56.324Z,100.00
2022-10-02T12:29:47.584Z,100.00
2022-10-02T12:32:39.435Z,100.00
2022-10-02T12:35:36.819Z,100.00
2022-10-02T12:38:32.294Z,100.00
2022-10-02T12:41:00.678Z,100.00
2022-10-02T12:44:02.407Z,100.00
2022-10-02T12:46:58.400Z,100.00
2022-10-02T12:49:56.734Z,100.00
2022-10-02T12:52:55.224Z,100.00
2022-10-02T12:55:58.568Z,100.00
2022-10-02T12:59:17.207Z,100.00
2022-10-02T13:02:37.249Z,100.00
2022-10-02T13:05:35.443Z,100.00
2022-10-02T13:08:28.577Z,100.00
2022-10-02T13:11:17.028Z,100.00
2022-10-02T13:14:01.646Z,100.00
2022-10-02T13:16:33.526Z,100.00
2022-10-02T13:19:21.251Z,100.00
2022-10-02T13:22:02.039Z,100.00
2022-10-02T13:24:45.794Z,100.00
2022-10-02T13:27:44.554Z,100.00
2022-10-02T13:30:15.809Z,100.00
2022-10-02T13:33:20.871Z,100.00
2022-10-02T13:36:05.557Z,100.00
2022-10-02T13:38:48.713Z,100.00
2022-10-02T13:41:52.226Z,100.00
2022-10-02T13:44:34.285Z,100.00
2022-10-02T13:47:34.350Z,100.00
2022-10-02T13:50:20.142Z,100.00
2022-10-02T13:53:05.506Z,100.00
2022-10-02T13:55:49.811Z,100.00
2022-10-02T13:58:20.783Z,100.00
2022-10-02T14:00:59.416Z,100.00
2022-10-02T14:03:51.566Z,100.00
2022-10-02T14:06:42.889Z,100.00
2022-10-02T14:09:35.129Z,100.00
2022-10-02T14:12:26.850Z,100.00
2022-10-02T14:15:31.836Z,100.00
2022-10-02T14:18:34.701Z,100.00
2022-10-02T14:21:23.175Z,100.00
2022-10-02T14:24:04.722Z,100.00
2022-10-02T14:26:57.291Z,100.00
2022-10-02T14:29:32.914Z,100.00
2022-10-02T14:32:22.068Z,100.00
2022-10-02T14:34:56.671Z,100.00
2022-10-02T14:37:31.060Z,100.00
2022-10-02T14:40:03.291Z,100.00
2022-10-02T14:42:45.275Z,100.00
2022-10-02T14:45:29.882Z,100.00
2022-10-02T14:48:11.221Z,100.00
2022-10-02T14:50:48.500Z,100.00
2022-10-02T14:53:59.983Z,100.00
2022-10-02T14:56:31.346Z,100.00
2022-10-02T14:59:12.094Z,100.00
2022-10-02T15:02:10.522Z,100.00
2022-10-02T15:04:41.577Z,100.00
2022-10-02T15:07:16.387Z,100.00
2022-10-02T15:09:59.741Z,100.00
2022-10-02T15:13:10.163Z,100.00
2022-10-02T15:15:48.555Z,100.00
2022-10-02T15:18:42.866Z,100.00
2022-10-02T15:21:27.829Z,100.00
2022-10-02T15:24:13.336Z,100.00
2022-10-02T15:26:54.268Z,100.00
2022-10-02T15:29:58.502Z,100.00
2022-10-02T15:33:07.474Z,100.00
2022-10-02T15:36:10.846Z,100.00
2022-10-02T15:38:52.734Z,100.00
2022-10-02T15:41:38.932Z,100.00
2022-10-02T15:44:17.378Z,100.00
2022-10-02T15:46:57.550Z,100.00
2022-10-02T15:49:37.724Z,100.00
2022-10-02T15:52:31.974Z,100.00
2022-10-02T15:55:35.981Z,100.00
2022-10-02T15:58:28.931Z,100.00
2022-10-02T16:01:06.994Z,100.00
2022-10-02T16:03:47.499Z,100.00
2022-10-02T16:07:03.152Z,100.00
2022-10-02T16:10:08.357Z,100.00
2022-10-02T16:13:12.526Z,100.00
2022-10-02T16:16:09.826Z,100.00
2022-10-02T16:19:14.595Z,100.00
2022-10-02T16:21:45.678Z,100.00
2022-10-02T16:24:19.680Z,100.00
2022-10-02T16:27:12.633Z,100.00
2022-10-02T16:30:14.191Z,100.00
2022-10-02T16:33:19.104Z,100.00
2022-10-02T16:35:54.324Z,100.00
2022-10-02T16:38:46.774Z,100.00
2022-10-02T16:41:37.842Z,100.00
2022-10-02T16:44:25.102Z,100.00
2022-10-02T16:47:08.299Z,100.00
2022-10-02T16:50:00.375Z,100.00
2022-10-02T16:52:35.090Z,100.00
2022-10-02T16:55:23.264Z,100.00
2022-10-02T16:58:01.423Z,100.00
2022-10-02T17:00:42.008Z,100.00
2022-10-02T17:03:21.350Z,100.00
2022-10-02T17:05:55.353Z,100.00
2022-10-02T17:08:49.401Z,100.00
2022-10-02T17:11:31.299Z,100.00
2022-10-02T17:14:26.318Z,100.00
2022-10-02T17:17:12.408Z,100.00
2022-10-02T17:19:51.366Z,100.00
2022-10-02T17:22:43.393Z,100.00
2022-10-02T17:25:28.629Z,100.00
2022-10-02T17:28:06.415Z,100.00
2022-10-02T17:31:10.097Z,100.00
2022-10-02T17:33:52.780Z,100.00
2022-10-02T17:36:37.776Z,100.00
2022-10-02T17:39:28.460Z,100.00
2022-10-02T17:42:17.874Z,100.00
2022-10-02T17:44:58.050Z,100.00
2022-10-02T17:47:45.426Z,100.00
2022-10-02T17:50:32.688Z,100.00
2022-10-02T17:53:43.631Z,100.00
2022-10-02T17:56:50.884Z,100.00
2022-10-02T17:59:35.801Z,100.00
2022-10-02T18:02:36.974Z,100.00
2022-10-02T18:05:42.281Z,100.00
2022-10-02T18:08:35.218Z,100.00
2022-10-02T18:11:56.992Z,100.00
2022-10-02T18:14:49.293Z,100.00
2022-10-02T18:17:42.346Z,100.00
2022-10-02T18:20:36.216Z,100.00
2022-10-02T18:23:17.049Z,100.00
2022-10-02T18:26:14.419Z,100.00
2022-10-02T18:28:58.830Z,100.00
2022-10-02T18:31:55.233Z,100.00
2022-10-02T18:34:33.387Z,100.00
2022-10-02T18:37:19.706Z,100.00
2022-10-02T18:40:11.244Z,100.00
2022-10-02T18:42:54.480Z,100.00
2022-10-02T18:45:46.068Z,100.00
2022-10-02T18:48:32.378Z,100.00
2022-10-02T18:51:19.443Z,100.00
2022-10-02T18:54:16.411Z,100.00
2022-10-02T18:57:02.887Z,100.00
2022-10-02T18:59:53.770Z,100.00
2022-10-02T19:02:35.346Z,100.00
2022-10-02T19:05:25.368Z,100.00
2022-10-02T19:08:05.846Z,100.00
2022-10-02T19:10:34.211Z,100.00
2022-10-02T19:13:17.965Z,100.00
2022-10-02T19:15:49.387Z,100.00
2022-10-02T19:18:27.868Z,100.00
2022-10-02T19:21:07.558Z,100.00
2022-10-02T19:23:51.558Z,100.00
2022-10-02T19:26:24.514Z,100.00
2022-10-02T19:28:57.286Z,100.00
2022-10-02T19:31:30.193Z,100.00
2022-10-02T19:34:03.359Z,100.00
2022-10-02T19:36:43.742Z,100.00
2022-10-02T19:39:23.654Z,100.00
2022-10-02T19:41:56.988Z,100.00
2022-10-02T19:44:32.407Z,100.00
2022-10-02T19:47:04.647Z,100.00
2022-10-02T19:49:40.319Z,100.00
2022-10-02T19:52:42.357Z,100.00
2022-10-02T19:55:28.151Z,100.00
2022-10-02T19:58:05.442Z,100.00
2022-10-02T20:00:38.925Z,100.00
2022-10-02T20:03:15.999Z,100.00
2022-10-02T20:05:46.211Z,100.00
2022-10-02T20:08:46.172Z,100.00
2022-10-02T20:11:49.868Z,100.00
2022-10-02T20:14:29.948Z,100.00
2022-10-02T20:17:10.309Z,100.00
2022-10-02T20:19:41.254Z,100.00
2022-10-02T20:22:17.866Z,100.00
2022-10-02T20:25:10.981Z,100.00
2022-10-02T20:28:18.250Z,100.00
2022-10-02T20:30:55.541Z,100.00
2022-10-02T20:33:41.912Z,100.00
2022-10-02T20:36:53.798Z,100.00
2022-10-02T20:39:28.179Z,100.00
2022-10-02T20:42:07.008Z,100.00
2022-10-02T20:44:38.350Z,100.00
2022-10-02T20:47:45.137Z,100.00
2022-10-02T20:50:17.181Z,100.00
2022-10-02T20:53:15.515Z,100.00
2022-10-02T20:56:11.595Z,100.00
2022-10-02T20:59:07.825Z,100.00
2022-10-02T21:02:09.168Z,100.00
2022-10-02T21:05:11.444Z,100.00
2022-10-02T21:08:10.300Z,100.00
2022-10-02T21:10:57.223Z,100.00
2022-10-02T21:13:47.006Z,100.00
2022-10-02T21:16:52.539Z,100.00
2022-10-02T21:19:45.378Z,100.00
2022-10-02T21:23:01.233Z,100.00
2022-10-02T21:25:36.572Z,100.00
2022-10-02T21:28:28.509Z,100.00
2022-10-02T21:31:39.925Z,100.00
2022-10-02T21:34:11.414Z,100.00
2022-10-02T21:37:28.018Z,100.00
2022-10-02T21:40:11.334Z,100.00
2022-10-02T21:43:06.224Z,100.00
2022-10-02T21:46:02.272Z,100.00
2022-10-02T21:49:15.402Z,100.00
2022-10-02T21:52:21.230Z,100.00
2022-10-02T21:55:14.420Z,100.00
2022-10-02T21:58:16.708Z,100.00
2022-10-02T22:01:26.505Z,100.00
2022-10-02T22:04:22.281Z,100.00
2022-10-02T22:06:59.441Z,100.00
2022-10-02T22:09:58.668Z,100.00
2022-10-02T22:12:41.705Z,100.00
2022-10-02T22:15:25.574Z,100.00
2022-10-02T22:18:20.053Z,100.00
2022-10-02T22:21:35.356Z,100.00
2022-10-02T22:24:19.149Z,100.00
2022-10-02T22:27:04.954Z,100.00
2022-10-02T22:29:55.541Z,100.00
2022-10-02T22:33:07.557Z,100.00
2022-10-02T22:36:13.195Z,100.00
2022-10-02T22:38:50.592Z,100.00
2022-10-02T22:41:28.173Z,100.00
2022-10-02T22:43:56.501Z,100.00
2022-10-02T22:46:57.369Z,100.00
2022-10-02T22:49:33.765Z,100.00
2022-10-02T22:52:11.873Z,100.00
2022-10-02T22:54:50.562Z,100.00
2022-10-02T22:57:18.923Z,100.00
2022-10-02T22:59:59.830Z,100.00
2022-10-02T23:02:47.281Z,100.00
2022-10-02T23:05:47.285Z,100.00
2022-10-02T23:08:15.697Z,100.00
2022-10-02T23:11:07.920Z,100.00
2022-10-02T23:13:47.910Z,100.00
2022-10-02T23:16:22.051Z,100.00
2022-10-02T23:18:52.248Z,100.00
2022-10-02T23:21:29.461Z,100.00
2022-10-02T23:24:48.356Z,100.00
2022-10-02T23:27:42.189Z,100.00
2022-10-02T23:30:18.780Z,100.00
2022-10-02T23:33:20.067Z,100.00
2022-10-02T23:36:02.193Z,100.00
2022-10-02T23:38:49.628Z,100.00
2022-10-02T23:41:48.031Z,100.00
2022-10-02T23:44:33.013Z,100.00
2022-10-02T23:47:21.823Z,100.00
2022-10-02T23:49:54.727Z,100.00
2022-10-02T23:52:50.725Z,100.00
2022-10-02T23:55:46.938Z,100.00
2022-10-02T23:58:49.955Z,100.00
